sensor_id;sensor_type;location;lat;lon;timestamp;P1;durP1;ratioP1;P2;durP2;ratioP2
13331;SDS011;6735;51.456;12.626;2023-05-27T00:02:19;11.83;;;5.80;;
13331;SDS011;6735;51.456;12.626;2023-05-27T00:04:44;14.70;;;6.77;;
13331;SDS011;6735;51.456;12.626;2023-05-27T00:07:10;14.40;;;6.07;;
13331;SDS011;6735;51.456;12.626;2023-05-27T00:09:35;12.27;;;5.50;;
13331;SDS011;6735;51.456;12.626;2023-05-27T00:12:01;14.33;;;6.20;;
13331;SDS011;6735;51.456;12.626;2023-05-27T00:14:27;11.37;;;5.47;;
13331;SDS011;6735;51.456;12.626;2023-05-27T00:16:52;10.37;;;5.83;;
13331;SDS011;6735;51.456;12.626;2023-05-27T00:19:17;12.33;;;5.90;;
13331;SDS011;6735;51.456;12.626;2023-05-27T00:21:43;11.73;;;6.20;;
13331;SDS011;6735;51.456;12.626;2023-05-27T00:24:09;10.57;;;5.80;;
13331;SDS011;6735;51.456;12.626;2023-05-27T00:26:35;11.47;;;6.30;;
13331;SDS011;6735;51.456;12.626;2023-05-27T00:29:00;11.97;;;6.13;;
13331;SDS011;6735;51.456;12.626;2023-05-27T00:31:26;13.83;;;6.00;;
13331;SDS011;6735;51.456;12.626;2023-05-27T00:33:52;10.50;;;6.37;;
13331;SDS011;6735;51.456;12.626;2023-05-27T00:36:17;13.50;;;6.13;;
13331;SDS011;6735;51.456;12.626;2023-05-27T00:38:43;13.17;;;6.07;;
13331;SDS011;6735;51.456;12.626;2023-05-27T00:41:10;14.23;;;6.30;;
13331;SDS011;6735;51.456;12.626;2023-05-27T00:43:37;17.63;;;6.37;;
13331;SDS011;6735;51.456;12.626;2023-05-27T00:46:02;10.30;;;5.80;;
13331;SDS011;6735;51.456;12.626;2023-05-27T00:48:28;12.17;;;5.93;;
13331;SDS011;6735;51.456;12.626;2023-05-27T00:50:54;15.80;;;6.07;;
13331;SDS011;6735;51.456;12.626;2023-05-27T00:53:20;13.60;;;6.00;;
13331;SDS011;6735;51.456;12.626;2023-05-27T00:55:46;10.90;;;6.07;;
13331;SDS011;6735;51.456;12.626;2023-05-27T00:58:12;10.50;;;5.97;;
13331;SDS011;6735;51.456;12.626;2023-05-27T01:00:38;14.23;;;6.70;;
13331;SDS011;6735;51.456;12.626;2023-05-27T01:03:04;12.13;;;6.47;;
13331;SDS011;6735;51.456;12.626;2023-05-27T01:05:31;12.97;;;6.43;;
13331;SDS011;6735;51.456;12.626;2023-05-27T01:08:09;13.37;;;6.10;;
13331;SDS011;6735;51.456;12.626;2023-05-27T01:10:54;10.60;;;6.10;;
13331;SDS011;6735;51.456;12.626;2023-05-27T01:13:34;13.80;;;6.37;;
13331;SDS011;6735;51.456;12.626;2023-05-27T01:16:01;12.90;;;6.53;;
13331;SDS011;6735;51.456;12.626;2023-05-27T01:18:30;11.17;;;5.83;;
13331;SDS011;6735;51.456;12.626;2023-05-27T01:20:59;12.63;;;6.77;;
13331;SDS011;6735;51.456;12.626;2023-05-27T01:23:30;12.93;;;7.07;;
13331;SDS011;6735;51.456;12.626;2023-05-27T01:25:56;12.63;;;6.47;;
13331;SDS011;6735;51.456;12.626;2023-05-27T01:28:22;15.30;;;6.17;;
13331;SDS011;6735;51.456;12.626;2023-05-27T01:30:47;14.50;;;7.13;;
13331;SDS011;6735;51.456;12.626;2023-05-27T01:33:17;12.83;;;6.37;;
13331;SDS011;6735;51.456;12.626;2023-05-27T01:35:56;12.90;;;6.80;;
13331;SDS011;6735;51.456;12.626;2023-05-27T01:38:25;15.30;;;6.17;;
13331;SDS011;6735;51.456;12.626;2023-05-27T01:40:53;14.17;;;6.47;;
13331;SDS011;6735;51.456;12.626;2023-05-27T01:43:19;14.67;;;7.70;;
13331;SDS011;6735;51.456;12.626;2023-05-27T01:45:45;12.40;;;6.70;;
13331;SDS011;6735;51.456;12.626;2023-05-27T01:48:11;13.07;;;7.20;;
13331;SDS011;6735;51.456;12.626;2023-05-27T01:50:36;12.60;;;6.77;;
13331;SDS011;6735;51.456;12.626;2023-05-27T01:53:02;14.17;;;7.40;;
13331;SDS011;6735;51.456;12.626;2023-05-27T01:55:28;12.33;;;6.63;;
13331;SDS011;6735;51.456;12.626;2023-05-27T01:57:55;14.57;;;6.90;;
13331;SDS011;6735;51.456;12.626;2023-05-27T02:00:20;15.67;;;7.37;;
13331;SDS011;6735;51.456;12.626;2023-05-27T02:02:46;14.33;;;6.60;;
13331;SDS011;6735;51.456;12.626;2023-05-27T02:05:11;17.83;;;7.10;;
13331;SDS011;6735;51.456;12.626;2023-05-27T02:07:36;24.73;;;7.93;;
13331;SDS011;6735;51.456;12.626;2023-05-27T02:10:03;16.23;;;7.40;;
13331;SDS011;6735;51.456;12.626;2023-05-27T02:12:29;13.40;;;6.93;;
13331;SDS011;6735;51.456;12.626;2023-05-27T02:14:54;16.07;;;7.33;;
13331;SDS011;6735;51.456;12.626;2023-05-27T02:17:20;17.17;;;7.50;;
13331;SDS011;6735;51.456;12.626;2023-05-27T02:19:45;15.20;;;7.50;;
13331;SDS011;6735;51.456;12.626;2023-05-27T02:22:11;16.17;;;7.27;;
13331;SDS011;6735;51.456;12.626;2023-05-27T02:24:37;15.77;;;7.17;;
13331;SDS011;6735;51.456;12.626;2023-05-27T02:27:03;14.03;;;7.33;;
13331;SDS011;6735;51.456;12.626;2023-05-27T02:29:28;12.13;;;6.87;;
13331;SDS011;6735;51.456;12.626;2023-05-27T02:31:54;14.80;;;6.87;;
13331;SDS011;6735;51.456;12.626;2023-05-27T02:34:19;12.20;;;6.90;;
13331;SDS011;6735;51.456;12.626;2023-05-27T02:36:45;13.50;;;7.03;;
13331;SDS011;6735;51.456;12.626;2023-05-27T02:39:10;15.13;;;7.60;;
13331;SDS011;6735;51.456;12.626;2023-05-27T02:41:36;15.03;;;7.20;;
13331;SDS011;6735;51.456;12.626;2023-05-27T02:44:01;17.40;;;7.40;;
13331;SDS011;6735;51.456;12.626;2023-05-27T02:46:27;16.13;;;7.23;;
13331;SDS011;6735;51.456;12.626;2023-05-27T02:48:53;15.97;;;7.37;;
13331;SDS011;6735;51.456;12.626;2023-05-27T02:51:18;14.90;;;7.17;;
13331;SDS011;6735;51.456;12.626;2023-05-27T02:53:44;15.10;;;7.27;;
13331;SDS011;6735;51.456;12.626;2023-05-27T02:56:09;13.87;;;7.13;;
13331;SDS011;6735;51.456;12.626;2023-05-27T02:58:35;14.73;;;7.43;;
13331;SDS011;6735;51.456;12.626;2023-05-27T03:01:00;15.63;;;7.67;;
13331;SDS011;6735;51.456;12.626;2023-05-27T03:03:26;20.40;;;7.80;;
13331;SDS011;6735;51.456;12.626;2023-05-27T03:05:51;12.83;;;7.23;;
13331;SDS011;6735;51.456;12.626;2023-05-27T03:08:17;15.30;;;7.33;;
13331;SDS011;6735;51.456;12.626;2023-05-27T03:10:42;13.20;;;7.37;;
13331;SDS011;6735;51.456;12.626;2023-05-27T03:13:08;14.10;;;7.40;;
13331;SDS011;6735;51.456;12.626;2023-05-27T03:15:33;16.67;;;7.90;;
13331;SDS011;6735;51.456;12.626;2023-05-27T03:18:00;13.20;;;7.27;;
13331;SDS011;6735;51.456;12.626;2023-05-27T03:20:26;17.13;;;7.07;;
13331;SDS011;6735;51.456;12.626;2023-05-27T03:22:52;14.40;;;8.07;;
13331;SDS011;6735;51.456;12.626;2023-05-27T03:25:17;13.00;;;7.17;;
13331;SDS011;6735;51.456;12.626;2023-05-27T03:27:43;15.77;;;7.53;;
13331;SDS011;6735;51.456;12.626;2023-05-27T03:30:08;13.40;;;8.27;;
13331;SDS011;6735;51.456;12.626;2023-05-27T03:32:34;15.20;;;7.90;;
13331;SDS011;6735;51.456;12.626;2023-05-27T03:35:00;15.43;;;7.37;;
13331;SDS011;6735;51.456;12.626;2023-05-27T03:37:25;14.67;;;8.23;;
13331;SDS011;6735;51.456;12.626;2023-05-27T03:39:51;14.90;;;7.53;;
13331;SDS011;6735;51.456;12.626;2023-05-27T03:42:18;13.73;;;7.73;;
13331;SDS011;6735;51.456;12.626;2023-05-27T03:44:44;20.30;;;8.30;;
13331;SDS011;6735;51.456;12.626;2023-05-27T03:47:10;13.13;;;6.93;;
13331;SDS011;6735;51.456;12.626;2023-05-27T03:49:35;14.20;;;7.90;;
13331;SDS011;6735;51.456;12.626;2023-05-27T03:52:01;15.90;;;8.03;;
13331;SDS011;6735;51.456;12.626;2023-05-27T03:54:26;15.40;;;8.13;;
13331;SDS011;6735;51.456;12.626;2023-05-27T03:56:52;15.43;;;7.47;;
13331;SDS011;6735;51.456;12.626;2023-05-27T03:59:17;16.87;;;8.43;;
13331;SDS011;6735;51.456;12.626;2023-05-27T04:01:43;15.23;;;7.60;;
13331;SDS011;6735;51.456;12.626;2023-05-27T04:04:09;14.83;;;7.53;;
13331;SDS011;6735;51.456;12.626;2023-05-27T04:06:35;15.60;;;7.57;;
13331;SDS011;6735;51.456;12.626;2023-05-27T04:09:00;17.17;;;7.90;;
13331;SDS011;6735;51.456;12.626;2023-05-27T04:11:26;17.10;;;7.70;;
13331;SDS011;6735;51.456;12.626;2023-05-27T04:13:52;14.90;;;7.53;;
13331;SDS011;6735;51.456;12.626;2023-05-27T04:16:18;14.27;;;7.50;;
13331;SDS011;6735;51.456;12.626;2023-05-27T04:18:43;19.07;;;7.63;;
13331;SDS011;6735;51.456;12.626;2023-05-27T04:21:13;15.77;;;7.77;;
13331;SDS011;6735;51.456;12.626;2023-05-27T04:23:45;18.00;;;8.10;;
13331;SDS011;6735;51.456;12.626;2023-05-27T04:26:11;14.73;;;7.23;;
13331;SDS011;6735;51.456;12.626;2023-05-27T04:28:37;15.37;;;7.60;;
13331;SDS011;6735;51.456;12.626;2023-05-27T04:31:04;13.93;;;7.00;;
13331;SDS011;6735;51.456;12.626;2023-05-27T04:33:30;16.07;;;7.73;;
13331;SDS011;6735;51.456;12.626;2023-05-27T04:35:55;13.37;;;7.87;;
13331;SDS011;6735;51.456;12.626;2023-05-27T04:38:21;16.03;;;7.77;;
13331;SDS011;6735;51.456;12.626;2023-05-27T04:40:48;17.00;;;7.37;;
13331;SDS011;6735;51.456;12.626;2023-05-27T04:43:18;13.20;;;7.23;;
13331;SDS011;6735;51.456;12.626;2023-05-27T04:45:44;12.93;;;6.93;;
13331;SDS011;6735;51.456;12.626;2023-05-27T04:48:11;12.40;;;7.20;;
13331;SDS011;6735;51.456;12.626;2023-05-27T04:50:36;18.27;;;7.83;;
13331;SDS011;6735;51.456;12.626;2023-05-27T04:53:02;13.83;;;7.50;;
13331;SDS011;6735;51.456;12.626;2023-05-27T04:55:27;15.57;;;7.73;;
13331;SDS011;6735;51.456;12.626;2023-05-27T04:57:53;11.87;;;6.97;;
13331;SDS011;6735;51.456;12.626;2023-05-27T05:00:19;12.00;;;7.07;;
13331;SDS011;6735;51.456;12.626;2023-05-27T05:02:49;21.27;;;7.60;;
13331;SDS011;6735;51.456;12.626;2023-05-27T05:05:14;13.80;;;7.57;;
13331;SDS011;6735;51.456;12.626;2023-05-27T05:07:40;12.87;;;6.77;;
13331;SDS011;6735;51.456;12.626;2023-05-27T05:10:08;12.17;;;6.47;;
13331;SDS011;6735;51.456;12.626;2023-05-27T05:12:35;14.23;;;7.17;;
13331;SDS011;6735;51.456;12.626;2023-05-27T05:15:01;13.87;;;6.87;;
13331;SDS011;6735;51.456;12.626;2023-05-27T05:17:27;13.77;;;7.10;;
13331;SDS011;6735;51.456;12.626;2023-05-27T05:19:52;12.17;;;7.10;;
13331;SDS011;6735;51.456;12.626;2023-05-27T05:22:18;13.80;;;7.33;;
13331;SDS011;6735;51.456;12.626;2023-05-27T05:24:44;11.43;;;6.77;;
13331;SDS011;6735;51.456;12.626;2023-05-27T05:27:11;10.20;;;6.70;;
13331;SDS011;6735;51.456;12.626;2023-05-27T05:29:36;10.07;;;6.33;;
13331;SDS011;6735;51.456;12.626;2023-05-27T05:32:02;11.50;;;7.00;;
13331;SDS011;6735;51.456;12.626;2023-05-27T05:34:28;13.03;;;6.70;;
13331;SDS011;6735;51.456;12.626;2023-05-27T05:36:53;12.37;;;6.77;;
13331;SDS011;6735;51.456;12.626;2023-05-27T05:39:19;15.43;;;7.50;;
13331;SDS011;6735;51.456;12.626;2023-05-27T05:41:45;11.93;;;6.50;;
13331;SDS011;6735;51.456;12.626;2023-05-27T05:44:11;14.43;;;7.40;;
13331;SDS011;6735;51.456;12.626;2023-05-27T05:46:37;12.40;;;6.53;;
13331;SDS011;6735;51.456;12.626;2023-05-27T05:49:03;13.50;;;7.30;;
13331;SDS011;6735;51.456;12.626;2023-05-27T05:51:28;11.60;;;7.13;;
13331;SDS011;6735;51.456;12.626;2023-05-27T05:53:55;12.07;;;7.10;;
13331;SDS011;6735;51.456;12.626;2023-05-27T05:56:21;16.57;;;7.70;;
13331;SDS011;6735;51.456;12.626;2023-05-27T05:58:47;10.20;;;6.47;;
13331;SDS011;6735;51.456;12.626;2023-05-27T06:01:12;14.43;;;6.77;;
13331;SDS011;6735;51.456;12.626;2023-05-27T06:03:38;14.90;;;6.70;;
13331;SDS011;6735;51.456;12.626;2023-05-27T06:06:03;12.40;;;6.47;;
13331;SDS011;6735;51.456;12.626;2023-05-27T06:08:29;12.53;;;6.00;;
13331;SDS011;6735;51.456;12.626;2023-05-27T06:10:55;18.63;;;6.90;;
13331;SDS011;6735;51.456;12.626;2023-05-27T06:13:20;15.03;;;6.30;;
13331;SDS011;6735;51.456;12.626;2023-05-27T06:15:46;9.43;;;5.37;;
13331;SDS011;6735;51.456;12.626;2023-05-27T06:18:11;12.20;;;6.20;;
13331;SDS011;6735;51.456;12.626;2023-05-27T06:20:37;14.27;;;6.30;;
13331;SDS011;6735;51.456;12.626;2023-05-27T06:23:02;11.13;;;5.83;;
13331;SDS011;6735;51.456;12.626;2023-05-27T06:25:28;10.77;;;5.60;;
13331;SDS011;6735;51.456;12.626;2023-05-27T06:27:53;11.23;;;5.60;;
13331;SDS011;6735;51.456;12.626;2023-05-27T06:30:19;10.80;;;5.50;;
13331;SDS011;6735;51.456;12.626;2023-05-27T06:32:44;11.23;;;5.40;;
13331;SDS011;6735;51.456;12.626;2023-05-27T06:35:10;10.87;;;5.27;;
13331;SDS011;6735;51.456;12.626;2023-05-27T06:37:35;10.70;;;6.07;;
13331;SDS011;6735;51.456;12.626;2023-05-27T06:40:01;12.10;;;6.47;;
13331;SDS011;6735;51.456;12.626;2023-05-27T06:42:27;13.80;;;5.87;;
13331;SDS011;6735;51.456;12.626;2023-05-27T06:44:52;12.60;;;5.47;;
13331;SDS011;6735;51.456;12.626;2023-05-27T06:47:18;12.73;;;5.67;;
13331;SDS011;6735;51.456;12.626;2023-05-27T06:49:44;12.37;;;5.37;;
13331;SDS011;6735;51.456;12.626;2023-05-27T06:52:09;11.23;;;5.53;;
13331;SDS011;6735;51.456;12.626;2023-05-27T06:54:35;10.20;;;4.93;;
13331;SDS011;6735;51.456;12.626;2023-05-27T06:57:01;8.83;;;5.03;;
13331;SDS011;6735;51.456;12.626;2023-05-27T06:59:27;9.23;;;4.60;;
13331;SDS011;6735;51.456;12.626;2023-05-27T07:01:52;14.53;;;5.07;;
13331;SDS011;6735;51.456;12.626;2023-05-27T07:04:18;11.73;;;5.07;;
13331;SDS011;6735;51.456;12.626;2023-05-27T07:06:43;11.07;;;4.80;;
13331;SDS011;6735;51.456;12.626;2023-05-27T07:09:09;9.70;;;4.53;;
13331;SDS011;6735;51.456;12.626;2023-05-27T07:11:36;11.93;;;4.67;;
13331;SDS011;6735;51.456;12.626;2023-05-27T07:14:01;12.67;;;4.50;;
13331;SDS011;6735;51.456;12.626;2023-05-27T07:16:27;8.80;;;4.33;;
13331;SDS011;6735;51.456;12.626;2023-05-27T07:18:52;10.93;;;4.40;;
13331;SDS011;6735;51.456;12.626;2023-05-27T07:21:18;10.00;;;4.47;;
13331;SDS011;6735;51.456;12.626;2023-05-27T07:23:43;11.93;;;4.53;;
13331;SDS011;6735;51.456;12.626;2023-05-27T07:26:09;10.97;;;4.33;;
13331;SDS011;6735;51.456;12.626;2023-05-27T07:28:34;12.27;;;4.40;;
13331;SDS011;6735;51.456;12.626;2023-05-27T07:31:00;10.63;;;4.37;;
13331;SDS011;6735;51.456;12.626;2023-05-27T07:33:25;11.40;;;4.50;;
13331;SDS011;6735;51.456;12.626;2023-05-27T07:35:51;10.80;;;4.23;;
13331;SDS011;6735;51.456;12.626;2023-05-27T07:38:16;12.67;;;4.40;;
13331;SDS011;6735;51.456;12.626;2023-05-27T07:40:42;9.60;;;4.30;;
13331;SDS011;6735;51.456;12.626;2023-05-27T07:43:07;11.83;;;4.57;;
13331;SDS011;6735;51.456;12.626;2023-05-27T07:45:33;9.53;;;4.37;;
13331;SDS011;6735;51.456;12.626;2023-05-27T07:47:58;8.80;;;4.30;;
13331;SDS011;6735;51.456;12.626;2023-05-27T07:50:24;9.70;;;4.67;;
13331;SDS011;6735;51.456;12.626;2023-05-27T07:52:49;11.00;;;4.43;;
13331;SDS011;6735;51.456;12.626;2023-05-27T07:55:15;11.13;;;4.70;;
13331;SDS011;6735;51.456;12.626;2023-05-27T07:57:41;11.43;;;4.93;;
13331;SDS011;6735;51.456;12.626;2023-05-27T08:00:08;16.27;;;4.90;;
13331;SDS011;6735;51.456;12.626;2023-05-27T08:02:35;9.60;;;4.57;;
13331;SDS011;6735;51.456;12.626;2023-05-27T08:05:00;10.17;;;4.70;;
13331;SDS011;6735;51.456;12.626;2023-05-27T08:07:26;10.50;;;4.80;;
13331;SDS011;6735;51.456;12.626;2023-05-27T08:09:52;12.53;;;4.80;;
13331;SDS011;6735;51.456;12.626;2023-05-27T08:12:17;10.33;;;4.80;;
13331;SDS011;6735;51.456;12.626;2023-05-27T08:14:43;15.97;;;8.43;;
13331;SDS011;6735;51.456;12.626;2023-05-27T08:17:10;10.10;;;5.07;;
13331;SDS011;6735;51.456;12.626;2023-05-27T08:19:36;10.97;;;4.27;;
13331;SDS011;6735;51.456;12.626;2023-05-27T08:22:01;10.43;;;4.03;;
13331;SDS011;6735;51.456;12.626;2023-05-27T08:24:28;8.73;;;4.40;;
13331;SDS011;6735;51.456;12.626;2023-05-27T08:26:56;8.87;;;4.10;;
13331;SDS011;6735;51.456;12.626;2023-05-27T08:29:22;9.37;;;4.17;;
13331;SDS011;6735;51.456;12.626;2023-05-27T08:31:52;10.80;;;4.47;;
13331;SDS011;6735;51.456;12.626;2023-05-27T08:34:18;8.70;;;4.63;;
13331;SDS011;6735;51.456;12.626;2023-05-27T08:36:43;8.57;;;4.40;;
13331;SDS011;6735;51.456;12.626;2023-05-27T08:39:09;10.23;;;4.73;;
13331;SDS011;6735;51.456;12.626;2023-05-27T08:41:34;10.57;;;4.90;;
13331;SDS011;6735;51.456;12.626;2023-05-27T08:44:01;11.77;;;4.47;;
13331;SDS011;6735;51.456;12.626;2023-05-27T08:46:27;10.23;;;5.07;;
13331;SDS011;6735;51.456;12.626;2023-05-27T08:48:53;10.13;;;4.53;;
13331;SDS011;6735;51.456;12.626;2023-05-27T08:51:20;8.53;;;4.83;;
13331;SDS011;6735;51.456;12.626;2023-05-27T08:53:46;11.80;;;5.40;;
13331;SDS011;6735;51.456;12.626;2023-05-27T08:56:14;11.10;;;5.33;;
13331;SDS011;6735;51.456;12.626;2023-05-27T08:58:44;10.93;;;5.07;;
13331;SDS011;6735;51.456;12.626;2023-05-27T09:01:10;7.70;;;4.60;;
13331;SDS011;6735;51.456;12.626;2023-05-27T09:03:35;7.00;;;3.80;;
13331;SDS011;6735;51.456;12.626;2023-05-27T09:06:02;8.17;;;4.27;;
13331;SDS011;6735;51.456;12.626;2023-05-27T09:08:29;8.00;;;4.03;;
13331;SDS011;6735;51.456;12.626;2023-05-27T09:10:55;9.23;;;4.03;;
13331;SDS011;6735;51.456;12.626;2023-05-27T09:13:30;9.43;;;4.17;;
13331;SDS011;6735;51.456;12.626;2023-05-27T09:15:57;10.97;;;6.23;;
13331;SDS011;6735;51.456;12.626;2023-05-27T09:18:25;8.30;;;4.30;;
13331;SDS011;6735;51.456;12.626;2023-05-27T09:20:53;7.03;;;4.10;;
13331;SDS011;6735;51.456;12.626;2023-05-27T09:23:20;7.00;;;3.70;;
13331;SDS011;6735;51.456;12.626;2023-05-27T09:25:45;7.73;;;4.10;;
13331;SDS011;6735;51.456;12.626;2023-05-27T09:28:11;9.70;;;4.17;;
13331;SDS011;6735;51.456;12.626;2023-05-27T09:30:36;8.67;;;3.80;;
13331;SDS011;6735;51.456;12.626;2023-05-27T09:33:02;8.37;;;5.53;;
13331;SDS011;6735;51.456;12.626;2023-05-27T09:35:28;12.83;;;7.17;;
13331;SDS011;6735;51.456;12.626;2023-05-27T09:37:53;11.37;;;4.67;;
13331;SDS011;6735;51.456;12.626;2023-05-27T09:40:19;11.90;;;4.07;;
13331;SDS011;6735;51.456;12.626;2023-05-27T09:42:45;6.27;;;3.77;;
13331;SDS011;6735;51.456;12.626;2023-05-27T09:45:19;6.97;;;3.60;;
13331;SDS011;6735;51.456;12.626;2023-05-27T09:47:52;8.90;;;3.67;;
13331;SDS011;6735;51.456;12.626;2023-05-27T09:50:19;8.33;;;4.00;;
13331;SDS011;6735;51.456;12.626;2023-05-27T09:52:45;7.87;;;4.03;;
13331;SDS011;6735;51.456;12.626;2023-05-27T09:55:12;8.47;;;3.83;;
13331;SDS011;6735;51.456;12.626;2023-05-27T09:57:42;6.60;;;4.20;;
13331;SDS011;6735;51.456;12.626;2023-05-27T10:00:09;7.53;;;3.90;;
13331;SDS011;6735;51.456;12.626;2023-05-27T10:02:43;6.83;;;4.10;;
13331;SDS011;6735;51.456;12.626;2023-05-27T10:05:11;6.80;;;3.70;;
13331;SDS011;6735;51.456;12.626;2023-05-27T10:07:42;8.00;;;4.00;;
13331;SDS011;6735;51.456;12.626;2023-05-27T10:10:12;7.23;;;3.90;;
13331;SDS011;6735;51.456;12.626;2023-05-27T10:12:42;9.70;;;4.20;;
13331;SDS011;6735;51.456;12.626;2023-05-27T10:15:09;7.13;;;3.93;;
13331;SDS011;6735;51.456;12.626;2023-05-27T10:17:56;6.53;;;4.27;;
13331;SDS011;6735;51.456;12.626;2023-05-27T10:20:29;9.20;;;4.20;;
13331;SDS011;6735;51.456;12.626;2023-05-27T10:25:39;9.40;;;4.27;;
13331;SDS011;6735;51.456;12.626;2023-05-27T10:28:11;9.10;;;4.00;;
13331;SDS011;6735;51.456;12.626;2023-05-27T10:30:47;8.07;;;4.00;;
13331;SDS011;6735;51.456;12.626;2023-05-27T10:33:13;8.03;;;4.47;;
13331;SDS011;6735;51.456;12.626;2023-05-27T10:35:39;8.53;;;3.80;;
13331;SDS011;6735;51.456;12.626;2023-05-27T10:38:15;8.40;;;4.10;;
13331;SDS011;6735;51.456;12.626;2023-05-27T10:40:41;5.60;;;3.90;;
13331;SDS011;6735;51.456;12.626;2023-05-27T10:43:15;6.80;;;4.20;;
13331;SDS011;6735;51.456;12.626;2023-05-27T10:45:41;6.37;;;3.90;;
13331;SDS011;6735;51.456;12.626;2023-05-27T10:48:17;7.47;;;4.13;;
13331;SDS011;6735;51.456;12.626;2023-05-27T10:50:50;8.40;;;4.27;;
13331;SDS011;6735;51.456;12.626;2023-05-27T10:53:20;6.67;;;3.90;;
13331;SDS011;6735;51.456;12.626;2023-05-27T10:55:49;9.73;;;4.20;;
13331;SDS011;6735;51.456;12.626;2023-05-27T10:58:18;6.90;;;3.80;;
13331;SDS011;6735;51.456;12.626;2023-05-27T11:00:49;6.73;;;4.03;;
13331;SDS011;6735;51.456;12.626;2023-05-27T11:03:26;8.83;;;4.00;;
13331;SDS011;6735;51.456;12.626;2023-05-27T11:05:58;11.53;;;4.30;;
13331;SDS011;6735;51.456;12.626;2023-05-27T11:08:28;7.73;;;3.67;;
13331;SDS011;6735;51.456;12.626;2023-05-27T11:11:07;8.23;;;5.13;;
13331;SDS011;6735;51.456;12.626;2023-05-27T11:13:41;6.90;;;4.10;;
13331;SDS011;6735;51.456;12.626;2023-05-27T11:16:08;8.10;;;3.97;;
13331;SDS011;6735;51.456;12.626;2023-05-27T11:18:47;7.13;;;3.90;;
13331;SDS011;6735;51.456;12.626;2023-05-27T11:21:13;5.30;;;3.70;;
13331;SDS011;6735;51.456;12.626;2023-05-27T11:23:41;7.73;;;3.60;;
13331;SDS011;6735;51.456;12.626;2023-05-27T11:28:47;5.10;;;3.43;;
13331;SDS011;6735;51.456;12.626;2023-05-27T11:31:21;5.97;;;3.73;;
13331;SDS011;6735;51.456;12.626;2023-05-27T11:33:56;7.23;;;3.80;;
13331;SDS011;6735;51.456;12.626;2023-05-27T11:36:25;5.90;;;3.57;;
13331;SDS011;6735;51.456;12.626;2023-05-27T11:38:56;7.53;;;3.60;;
13331;SDS011;6735;51.456;12.626;2023-05-27T11:41:26;7.60;;;3.80;;
13331;SDS011;6735;51.456;12.626;2023-05-27T11:43:57;7.37;;;3.40;;
13331;SDS011;6735;51.456;12.626;2023-05-27T11:46:33;5.63;;;3.33;;
13331;SDS011;6735;51.456;12.626;2023-05-27T11:49:03;6.77;;;5.40;;
13331;SDS011;6735;51.456;12.626;2023-05-27T11:51:30;8.60;;;6.80;;
13331;SDS011;6735;51.456;12.626;2023-05-27T11:53:57;5.30;;;3.40;;
13331;SDS011;6735;51.456;12.626;2023-05-27T11:56:23;4.60;;;3.70;;
13331;SDS011;6735;51.456;12.626;2023-05-27T11:58:50;10.17;;;4.27;;
13331;SDS011;6735;51.456;12.626;2023-05-27T12:01:15;5.50;;;3.40;;
13331;SDS011;6735;51.456;12.626;2023-05-27T12:03:41;6.83;;;3.47;;
13331;SDS011;6735;51.456;12.626;2023-05-27T12:06:06;4.77;;;2.97;;
13331;SDS011;6735;51.456;12.626;2023-05-27T12:08:32;6.23;;;3.70;;
13331;SDS011;6735;51.456;12.626;2023-05-27T12:10:57;5.37;;;3.33;;
13331;SDS011;6735;51.456;12.626;2023-05-27T12:13:23;6.73;;;3.17;;
13331;SDS011;6735;51.456;12.626;2023-05-27T12:15:49;6.57;;;3.63;;
13331;SDS011;6735;51.456;12.626;2023-05-27T12:18:14;4.97;;;3.00;;
13331;SDS011;6735;51.456;12.626;2023-05-27T12:20:41;6.00;;;3.40;;
13331;SDS011;6735;51.456;12.626;2023-05-27T12:23:07;5.90;;;3.30;;
13331;SDS011;6735;51.456;12.626;2023-05-27T12:25:32;4.40;;;3.20;;
13331;SDS011;6735;51.456;12.626;2023-05-27T12:27:57;4.97;;;3.40;;
13331;SDS011;6735;51.456;12.626;2023-05-27T12:30:23;5.03;;;3.20;;
13331;SDS011;6735;51.456;12.626;2023-05-27T12:32:48;6.87;;;3.60;;
13331;SDS011;6735;51.456;12.626;2023-05-27T12:35:14;5.50;;;3.40;;
13331;SDS011;6735;51.456;12.626;2023-05-27T12:37:40;5.47;;;3.13;;
13331;SDS011;6735;51.456;12.626;2023-05-27T12:40:05;5.60;;;3.43;;
13331;SDS011;6735;51.456;12.626;2023-05-27T12:42:34;4.93;;;3.20;;
13331;SDS011;6735;51.456;12.626;2023-05-27T12:44:59;5.83;;;3.40;;
13331;SDS011;6735;51.456;12.626;2023-05-27T12:47:25;7.87;;;3.43;;
13331;SDS011;6735;51.456;12.626;2023-05-27T12:49:50;5.43;;;3.30;;
13331;SDS011;6735;51.456;12.626;2023-05-27T12:52:16;4.43;;;2.90;;
13331;SDS011;6735;51.456;12.626;2023-05-27T12:54:41;5.93;;;3.27;;
13331;SDS011;6735;51.456;12.626;2023-05-27T12:57:07;6.43;;;3.40;;
13331;SDS011;6735;51.456;12.626;2023-05-27T12:59:32;5.00;;;3.17;;
13331;SDS011;6735;51.456;12.626;2023-05-27T13:01:58;3.73;;;2.80;;
13331;SDS011;6735;51.456;12.626;2023-05-27T13:04:24;5.43;;;3.13;;
13331;SDS011;6735;51.456;12.626;2023-05-27T13:06:49;7.07;;;5.23;;
13331;SDS011;6735;51.456;12.626;2023-05-27T13:09:15;5.83;;;3.20;;
13331;SDS011;6735;51.456;12.626;2023-05-27T13:11:41;4.93;;;3.10;;
13331;SDS011;6735;51.456;12.626;2023-05-27T13:14:06;7.17;;;6.47;;
13331;SDS011;6735;51.456;12.626;2023-05-27T13:16:32;6.43;;;3.87;;
13331;SDS011;6735;51.456;12.626;2023-05-27T13:18:57;7.03;;;3.53;;
13331;SDS011;6735;51.456;12.626;2023-05-27T13:21:23;6.00;;;3.23;;
13331;SDS011;6735;51.456;12.626;2023-05-27T13:23:49;5.13;;;3.10;;
13331;SDS011;6735;51.456;12.626;2023-05-27T13:26:15;5.23;;;3.30;;
13331;SDS011;6735;51.456;12.626;2023-05-27T13:28:40;3.47;;;2.70;;
13331;SDS011;6735;51.456;12.626;2023-05-27T13:31:06;3.50;;;2.90;;
13331;SDS011;6735;51.456;12.626;2023-05-27T13:33:31;4.67;;;2.93;;
13331;SDS011;6735;51.456;12.626;2023-05-27T13:35:57;5.23;;;3.07;;
13331;SDS011;6735;51.456;12.626;2023-05-27T13:38:22;4.77;;;3.00;;
13331;SDS011;6735;51.456;12.626;2023-05-27T13:40:48;5.57;;;3.10;;
13331;SDS011;6735;51.456;12.626;2023-05-27T13:43:15;5.33;;;3.10;;
13331;SDS011;6735;51.456;12.626;2023-05-27T13:45:41;6.33;;;3.13;;
13331;SDS011;6735;51.456;12.626;2023-05-27T13:48:07;4.60;;;3.00;;
13331;SDS011;6735;51.456;12.626;2023-05-27T13:50:33;7.73;;;3.30;;
13331;SDS011;6735;51.456;12.626;2023-05-27T13:52:59;5.73;;;3.60;;
13331;SDS011;6735;51.456;12.626;2023-05-27T13:55:25;5.50;;;3.20;;
13331;SDS011;6735;51.456;12.626;2023-05-27T13:57:51;4.50;;;3.10;;
13331;SDS011;6735;51.456;12.626;2023-05-27T14:00:16;8.03;;;3.60;;
13331;SDS011;6735;51.456;12.626;2023-05-27T14:02:42;5.00;;;3.20;;
13331;SDS011;6735;51.456;12.626;2023-05-27T14:05:07;5.37;;;2.80;;
13331;SDS011;6735;51.456;12.626;2023-05-27T14:07:38;6.23;;;3.17;;
13331;SDS011;6735;51.456;12.626;2023-05-27T14:10:05;4.20;;;3.13;;
13331;SDS011;6735;51.456;12.626;2023-05-27T14:12:31;4.87;;;3.07;;
13331;SDS011;6735;51.456;12.626;2023-05-27T14:14:57;3.33;;;2.83;;
13331;SDS011;6735;51.456;12.626;2023-05-27T14:17:22;5.57;;;3.20;;
13331;SDS011;6735;51.456;12.626;2023-05-27T14:19:48;4.80;;;3.00;;
13331;SDS011;6735;51.456;12.626;2023-05-27T14:22:13;5.90;;;3.00;;
13331;SDS011;6735;51.456;12.626;2023-05-27T14:24:39;4.73;;;2.90;;
13331;SDS011;6735;51.456;12.626;2023-05-27T14:27:04;4.97;;;3.23;;
13331;SDS011;6735;51.456;12.626;2023-05-27T14:29:31;5.43;;;3.33;;
13331;SDS011;6735;51.456;12.626;2023-05-27T14:31:57;4.83;;;3.60;;
13331;SDS011;6735;51.456;12.626;2023-05-27T14:34:22;4.33;;;2.87;;
13331;SDS011;6735;51.456;12.626;2023-05-27T14:36:48;4.90;;;3.00;;
13331;SDS011;6735;51.456;12.626;2023-05-27T14:39:13;3.80;;;3.00;;
13331;SDS011;6735;51.456;12.626;2023-05-27T14:41:39;4.80;;;3.13;;
13331;SDS011;6735;51.456;12.626;2023-05-27T14:44:05;4.90;;;3.00;;